createdAt,value
2018-07-05T00:00:40.423Z,55.10
2018-07-05T00:03:19.926Z,58.10
2018-07-05T00:05:59.637Z,55.23
2018-07-05T00:08:39.331Z,56.10
2018-07-05T00:11:19.310Z,58.13
2018-07-05T00:13:58.657Z,56.90
2018-07-05T00:16:38.260Z,56.87
2018-07-05T00:19:17.777Z,57.00
2018-07-05T00:21:57.472Z,61.83
2018-07-05T00:24:37.166Z,56.90
2018-07-05T00:27:16.769Z,57.83
2018-07-05T00:29:56.438Z,56.27
2018-07-05T00:32:36.115Z,56.37
2018-07-05T00:35:15.634Z,56.67
2018-07-05T00:37:55.270Z,58.60
2018-07-05T00:40:34.906Z,56.90
2018-07-05T00:43:14.412Z,57.50
2018-07-05T00:45:53.943Z,55.40
2018-07-05T00:48:33.531Z,56.97
2018-07-05T00:51:13.147Z,56.93
2018-07-05T00:53:52.742Z,58.40
2018-07-05T00:56:32.497Z,57.53
2018-07-05T00:59:11.858Z,57.63
2018-07-05T01:01:51.516Z,55.50
2018-07-05T01:04:31.195Z,61.93
2018-07-05T01:07:10.653Z,58.70
2018-07-05T01:09:50.407Z,57.07
2018-07-05T01:12:29.972Z,58.57
2018-07-05T01:15:09.399Z,57.27
2018-07-05T01:17:48.825Z,57.47
2018-07-05T01:20:28.583Z,57.30
2018-07-05T01:23:08.092Z,57.10
2018-07-05T01:25:47.822Z,59.13
2018-07-05T01:28:27.433Z,54.63
2018-07-05T01:31:06.941Z,57.77
2018-07-05T01:33:46.512Z,55.90
2018-07-05T01:36:25.896Z,58.30
2018-07-05T01:39:05.873Z,57.40
2018-07-05T01:41:45.343Z,56.17
2018-07-05T01:44:25.012Z,57.33
2018-07-05T01:47:04.673Z,58.70
2018-07-05T01:49:44.011Z,56.30
2018-07-05T01:52:23.666Z,60.37
2018-07-05T01:55:03.104Z,56.60
2018-07-05T01:57:42.657Z,58.33
2018-07-05T02:00:22.185Z,56.10
2018-07-05T02:03:01.866Z,57.40
2018-07-05T02:05:41.380Z,59.77
2018-07-05T02:08:20.950Z,62.03
2018-07-05T02:11:00.423Z,61.63
2018-07-05T02:13:40.080Z,60.70
2018-07-05T02:16:19.646Z,57.23
2018-07-05T02:18:59.177Z,57.80
2018-07-05T02:21:38.547Z,58.33
2018-07-05T02:24:18.145Z,55.70
2018-07-05T02:26:57.623Z,58.40
2018-07-05T02:29:37.319Z,57.73
2018-07-05T02:32:16.886Z,57.17
2018-07-05T02:34:56.532Z,57.87
2018-07-05T02:37:41.626Z,56.90
2018-07-05T02:40:21.035Z,59.47
2018-07-05T02:43:00.765Z,57.60
2018-07-05T02:45:40.221Z,58.87
2018-07-05T02:48:19.944Z,57.37
2018-07-05T02:50:59.280Z,57.50
2018-07-05T02:53:38.889Z,56.50
2018-07-05T02:56:18.366Z,59.37
2018-07-05T02:58:58.066Z,62.07
2018-07-05T03:01:37.594Z,56.97
2018-07-05T03:04:17.114Z,57.20
2018-07-05T03:06:56.724Z,57.27
2018-07-05T03:09:36.223Z,60.07
2018-07-05T03:12:15.755Z,56.57
2018-07-05T03:14:55.275Z,60.00
2018-07-05T03:17:34.843Z,58.90
2018-07-05T03:20:14.462Z,59.20
2018-07-05T03:22:53.978Z,61.10
2018-07-05T03:25:33.544Z,61.73
2018-07-05T03:28:14.161Z,64.63
2018-07-05T03:30:53.707Z,59.90
2018-07-05T03:33:33.479Z,63.27
2018-07-05T03:36:12.950Z,59.03
2018-07-05T03:38:52.674Z,63.73
2018-07-05T03:41:32.414Z,60.50
2018-07-05T03:44:12.169Z,62.37
2018-07-05T03:46:51.798Z,62.57
2018-07-05T03:49:31.297Z,69.40
2018-07-05T03:52:11.295Z,63.60
2018-07-05T03:54:50.941Z,62.47
2018-07-05T03:57:30.533Z,65.00
2018-07-05T04:00:09.947Z,61.37
2018-07-05T04:02:49.643Z,64.67
2018-07-05T04:05:29.101Z,66.43
2018-07-05T04:08:08.694Z,65.23
2018-07-05T04:10:48.370Z,60.00
2018-07-05T04:13:28.036Z,60.97
2018-07-05T04:16:07.448Z,62.40
2018-07-05T04:18:47.271Z,63.37
2018-07-05T04:21:20.716Z,62.80
2018-07-05T04:24:00.402Z,59.40
2018-07-05T04:26:39.926Z,66.40
2018-07-05T04:29:19.529Z,61.13
2018-07-05T04:31:59.106Z,63.53
2018-07-05T04:34:38.566Z,65.93
2018-07-05T04:37:18.139Z,67.50
2018-07-05T04:39:57.750Z,64.73
2018-07-05T04:42:37.371Z,63.83
2018-07-05T04:45:16.766Z,61.83
2018-07-05T04:47:56.358Z,60.53
2018-07-05T04:50:29.786Z,65.20
2018-07-05T04:53:09.442Z,62.27
2018-07-05T04:55:49.007Z,61.70
2018-07-05T04:58:28.811Z,61.20
2018-07-05T05:01:08.350Z,62.80
2018-07-05T05:03:47.819Z,61.10
2018-07-05T05:06:27.396Z,65.40
2018-07-05T05:09:07.039Z,67.17
2018-07-05T05:11:46.503Z,63.80
2018-07-05T05:14:26.066Z,61.90
2018-07-05T05:17:05.545Z,65.67
2018-07-05T05:19:45.271Z,64.03
2018-07-05T05:22:24.691Z,64.90
2018-07-05T05:25:04.225Z,67.43
2018-07-05T05:27:43.632Z,69.30
2018-07-05T05:30:23.361Z,66.70
2018-07-05T05:33:02.750Z,66.17
2018-07-05T05:35:42.179Z,62.57
2018-07-05T05:38:21.734Z,66.70
2018-07-05T05:41:01.277Z,70.20
2018-07-05T05:43:40.938Z,65.20
2018-07-05T05:46:20.601Z,66.70
2018-07-05T05:49:00.266Z,64.97
2018-07-05T05:51:39.903Z,67.00
2018-07-05T05:54:19.410Z,63.63
2018-07-05T05:56:53.153Z,66.70
2018-07-05T05:59:32.613Z,59.60
2018-07-05T06:02:12.210Z,65.00
2018-07-05T06:04:51.884Z,64.20
2018-07-05T06:07:31.641Z,68.70
2018-07-05T06:10:11.278Z,62.63
2018-07-05T06:12:50.900Z,61.40
2018-07-05T06:15:30.482Z,62.50
2018-07-05T06:18:09.958Z,67.67
2018-07-05T06:20:49.790Z,62.03
2018-07-05T06:23:29.350Z,59.80
2018-07-05T06:26:08.822Z,58.57
2018-07-05T06:28:48.399Z,55.53
2018-07-05T06:31:29.879Z,56.10
2018-07-05T06:34:09.676Z,53.50
2018-07-05T06:36:49.655Z,53.90
2018-07-05T06:39:29.397Z,52.10
2018-07-05T06:42:08.859Z,53.53
2018-07-05T06:44:48.509Z,50.70
2018-07-05T06:47:27.970Z,50.77
2018-07-05T06:50:07.353Z,52.47
2018-07-05T06:52:46.661Z,49.60
2018-07-05T06:55:26.325Z,52.97
2018-07-05T06:58:05.788Z,52.10
2018-07-05T07:00:45.328Z,53.60
2018-07-05T07:03:24.973Z,50.30
2018-07-05T07:06:05.584Z,51.37
2018-07-05T07:08:45.212Z,51.27
2018-07-05T07:11:24.890Z,51.80
2018-07-05T07:14:04.547Z,53.13
2018-07-05T07:16:44.120Z,52.07
2018-07-05T07:19:23.569Z,49.00
2018-07-05T07:22:03.099Z,53.57
2018-07-05T07:24:42.745Z,50.37
2018-07-05T07:27:22.431Z,54.70
2018-07-05T07:30:02.084Z,50.80
2018-07-05T07:32:41.538Z,53.17
2018-07-05T07:35:21.389Z,50.47
2018-07-05T07:38:00.918Z,52.30
2018-07-05T07:40:40.492Z,54.00
2018-07-05T07:43:07.791Z,52.13
2018-07-05T07:45:35.065Z,51.70
2018-07-05T07:48:02.130Z,50.33
2018-07-05T07:50:29.314Z,51.30
2018-07-05T07:52:56.599Z,52.03
2018-07-05T07:55:23.766Z,52.30
2018-07-05T07:57:52.035Z,52.60
2018-07-05T08:00:19.202Z,51.00
2018-07-05T08:02:47.572Z,51.93
2018-07-05T08:05:17.208Z,52.43
2018-07-05T08:07:45.719Z,53.50
2018-07-05T08:10:24.032Z,50.87
2018-07-05T08:12:56.706Z,49.27
2018-07-05T08:15:24.012Z,50.07
2018-07-05T08:17:52.907Z,52.67
2018-07-05T08:20:30.137Z,50.90
2018-07-05T08:23:00.328Z,50.60
2018-07-05T08:25:31.707Z,50.83
2018-07-05T08:27:58.976Z,52.83
2018-07-05T08:30:26.163Z,50.60
2018-07-05T08:32:53.318Z,50.67
2018-07-05T08:35:20.457Z,48.60
2018-07-05T08:37:47.664Z,49.67
2018-07-05T08:40:15.474Z,50.17
2018-07-05T08:42:42.623Z,49.57
2018-07-05T08:45:10.080Z,48.70
2018-07-05T08:47:37.889Z,49.70
2018-07-05T08:50:05.165Z,49.73
2018-07-05T08:52:32.432Z,49.60
2018-07-05T08:54:59.686Z,48.97
2018-07-05T08:57:26.842Z,49.60
2018-07-05T08:59:53.989Z,52.00
2018-07-05T09:02:21.151Z,51.57
2018-07-05T09:04:48.309Z,49.57
2018-07-05T09:07:15.473Z,49.97
2018-07-05T09:09:42.638Z,49.70
2018-07-05T09:12:10.057Z,54.87
2018-07-05T09:14:37.205Z,48.80
2018-07-05T09:17:05.722Z,50.03
2018-07-05T09:19:32.910Z,49.10
2018-07-05T09:22:00.259Z,51.17
2018-07-05T09:24:27.430Z,48.63
2018-07-05T09:26:54.603Z,49.27
2018-07-05T09:34:48.382Z,50.00
2018-07-05T09:37:15.741Z,51.27
2018-07-05T09:42:40.177Z,54.87
2018-07-05T10:31:43.767Z,48.63
2018-07-05T10:34:12.010Z,52.03
2018-07-05T10:36:44.666Z,50.33
2018-07-05T10:39:12.077Z,51.93
2018-07-05T10:41:51.660Z,48.40
2018-07-05T10:44:31.255Z,51.97
2018-07-05T10:47:10.802Z,50.37
2018-07-05T10:49:50.233Z,50.20
2018-07-05T10:52:29.784Z,50.33
2018-07-05T10:55:09.418Z,49.40
2018-07-05T10:57:49.123Z,52.83
2018-07-05T11:00:28.645Z,51.37
2018-07-05T11:03:08.330Z,50.17
2018-07-05T11:05:47.681Z,51.30
2018-07-05T11:08:27.318Z,50.23
2018-07-05T11:11:06.699Z,52.80
2018-07-05T11:13:46.295Z,50.17
2018-07-05T11:16:25.736Z,51.33
2018-07-05T11:19:05.367Z,50.63
2018-07-05T11:21:45.066Z,53.27
2018-07-05T11:24:24.667Z,49.57
2018-07-05T11:27:04.082Z,51.53
2018-07-05T11:29:43.442Z,50.57
2018-07-05T11:32:22.947Z,51.27
2018-07-05T11:35:02.534Z,51.00
2018-07-05T11:37:42.074Z,55.47
2018-07-05T11:40:21.610Z,51.10
2018-07-05T11:43:01.090Z,50.07
2018-07-05T11:45:40.702Z,48.80
2018-07-05T11:48:20.300Z,51.97
2018-07-05T11:50:59.790Z,50.10
2018-07-05T11:53:41.066Z,50.27
2018-07-05T11:56:20.502Z,48.40
2018-07-05T11:59:00.213Z,49.80
2018-07-05T12:01:39.642Z,48.43
2018-07-05T12:04:19.183Z,50.83
2018-07-05T12:06:59.288Z,53.20
2018-07-05T12:09:38.820Z,52.13
2018-07-05T12:12:18.369Z,50.37
2018-07-05T12:14:57.983Z,49.47
2018-07-05T12:17:37.656Z,48.10
2018-07-05T12:20:17.123Z,50.10
2018-07-05T12:22:56.605Z,53.00
2018-07-05T12:25:36.311Z,49.50
2018-07-05T12:28:15.925Z,49.50
2018-07-05T12:30:55.332Z,48.80
2018-07-05T12:33:35.064Z,50.13
2018-07-05T12:36:14.578Z,49.67
2018-07-05T12:38:53.973Z,48.77
2018-07-05T12:41:33.612Z,52.00
2018-07-05T12:44:13.235Z,50.17
2018-07-05T12:46:52.674Z,52.17
2018-07-05T12:49:32.423Z,52.80
2018-07-05T12:52:12.087Z,52.33
2018-07-05T12:54:51.618Z,53.13
2018-07-05T12:57:31.078Z,51.87
2018-07-05T13:00:10.526Z,53.07
2018-07-05T13:02:50.130Z,55.93
2018-07-05T13:05:29.641Z,52.90
2018-07-05T13:08:09.410Z,53.40
2018-07-05T13:10:51.100Z,52.60
2018-07-05T13:13:30.672Z,51.87
2018-07-05T13:16:11.515Z,53.07
2018-07-05T13:27:39.807Z,52.33
2018-07-05T13:30:19.088Z,52.17
2018-07-05T13:32:59.758Z,52.70
2018-07-05T13:35:48.565Z,53.20
2018-07-05T13:38:34.220Z,54.50
2018-07-05T13:44:06.481Z,53.03
2018-07-05T13:49:42.273Z,52.03
2018-07-05T13:55:26.172Z,51.83
2018-07-05T13:58:05.670Z,54.50
2018-07-05T14:00:45.362Z,51.87
2018-07-05T14:03:24.814Z,52.17
2018-07-05T14:06:04.423Z,52.57
2018-07-05T14:08:43.943Z,51.00
2018-07-05T14:11:17.475Z,52.17
2018-07-05T14:13:57.429Z,51.63
2018-07-05T14:16:31.051Z,53.20
2018-07-05T14:19:10.938Z,51.97
2018-07-05T14:21:50.566Z,51.03
2018-07-05T14:24:30.165Z,52.17
2018-07-05T14:27:09.815Z,54.70
2018-07-05T14:29:49.179Z,51.10
2018-07-05T14:32:29.705Z,53.27
2018-07-05T14:35:09.285Z,51.53
2018-07-05T14:37:48.839Z,51.40
2018-07-05T14:40:28.394Z,53.80
2018-07-05T14:43:07.961Z,58.03
2018-07-05T14:45:47.437Z,51.50
2018-07-05T14:48:29.717Z,53.50
2018-07-05T14:51:09.381Z,54.10
2018-07-05T14:53:48.850Z,57.10
2018-07-05T14:56:28.416Z,54.23
2018-07-05T14:59:08.018Z,52.60
2018-07-05T15:01:47.639Z,52.97
2018-07-05T15:04:27.045Z,53.50
2018-07-05T15:07:06.717Z,52.30
2018-07-05T15:09:46.365Z,56.33
2018-07-05T15:12:25.887Z,53.97
2018-07-05T15:15:05.389Z,53.70
2018-07-05T15:17:45.055Z,54.83
2018-07-05T15:20:24.449Z,56.10
2018-07-05T15:23:04.184Z,55.20
2018-07-05T15:25:43.611Z,55.67
2018-07-05T15:28:23.154Z,53.53
2018-07-05T15:31:02.581Z,55.67
2018-07-05T15:33:41.932Z,56.97
2018-07-05T15:36:21.503Z,54.47
2018-07-05T15:39:01.006Z,55.43
2018-07-05T15:41:40.596Z,56.87
2018-07-05T15:44:20.202Z,52.40
2018-07-05T15:46:59.746Z,53.50
2018-07-05T15:49:39.273Z,55.80
2018-07-05T15:52:18.650Z,54.67
2018-07-05T15:54:58.170Z,54.90
2018-07-05T15:57:37.747Z,56.80
2018-07-05T16:00:17.490Z,54.10
2018-07-05T16:02:56.989Z,54.77
2018-07-05T16:05:36.522Z,54.60
2018-07-05T16:08:16.000Z,55.20
2018-07-05T16:10:55.370Z,54.10
2018-07-05T16:13:35.034Z,58.27
2018-07-05T16:16:14.466Z,52.67
2018-07-05T16:18:54.185Z,53.87
2018-07-05T16:21:33.626Z,52.90
2018-07-05T16:24:13.283Z,52.37
2018-07-05T16:26:52.978Z,54.87
2018-07-05T16:29:32.499Z,52.67
2018-07-05T16:32:12.235Z,55.20
2018-07-05T16:34:52.126Z,53.90
2018-07-05T16:37:31.655Z,53.00
2018-07-05T16:40:11.243Z,51.40
2018-07-05T16:42:51.661Z,54.23
2018-07-05T16:45:31.277Z,58.07
2018-07-05T16:48:10.851Z,55.50
2018-07-05T16:50:50.290Z,54.23
2018-07-05T16:53:29.798Z,54.80
2018-07-05T16:56:09.470Z,57.47
2018-07-05T16:58:49.167Z,53.67
2018-07-05T17:01:28.855Z,56.47
2018-07-05T17:04:08.416Z,60.20
2018-07-05T17:06:48.003Z,55.93
2018-07-05T17:09:27.406Z,55.23
2018-07-05T17:12:11.044Z,53.50
2018-07-05T17:14:50.602Z,55.27
2018-07-05T17:17:30.158Z,55.03
2018-07-05T17:20:09.811Z,55.93
2018-07-05T17:22:49.380Z,53.83
2018-07-05T17:25:29.029Z,54.13
2018-07-05T17:28:09.978Z,54.20
2018-07-05T17:30:43.545Z,54.87
2018-07-05T17:33:23.175Z,54.97
2018-07-05T17:36:02.735Z,53.90
2018-07-05T17:38:42.477Z,55.30
2018-07-05T17:41:21.984Z,54.00
2018-07-05T17:44:01.409Z,54.87
2018-07-05T17:46:40.746Z,56.67
2018-07-05T17:49:20.170Z,56.23
2018-07-05T17:51:59.711Z,56.03
2018-07-05T17:54:39.290Z,58.87
2018-07-05T17:57:18.939Z,57.40
2018-07-05T17:59:58.535Z,55.40
2018-07-05T18:02:38.188Z,56.20
2018-07-05T18:05:17.694Z,58.10
2018-07-05T18:07:51.236Z,59.87
2018-07-05T18:10:30.890Z,54.20
2018-07-05T18:13:10.470Z,51.00
2018-07-05T18:15:50.038Z,51.70
2018-07-05T18:18:29.585Z,54.37
2018-07-05T18:21:09.084Z,64.00
2018-07-05T18:23:48.673Z,56.17
2018-07-05T18:26:28.174Z,49.50
2018-07-05T18:29:07.602Z,50.50
2018-07-05T18:31:47.218Z,50.47
2018-07-05T18:34:26.955Z,49.47
2018-07-05T18:37:06.279Z,49.67
2018-07-05T18:39:39.837Z,50.57
2018-07-05T18:42:19.434Z,50.90
2018-07-05T18:44:59.070Z,50.20
2018-07-05T18:47:38.751Z,49.97
2018-07-05T18:50:18.341Z,54.90
2018-07-05T18:52:58.429Z,51.17
2018-07-05T18:55:37.739Z,50.67
2018-07-05T18:58:11.270Z,50.40
2018-07-05T19:00:50.982Z,57.57
2018-07-05T19:03:30.565Z,56.87
2018-07-05T19:06:10.129Z,51.80
2018-07-05T19:08:49.794Z,51.77
2018-07-05T19:11:29.329Z,52.40
2018-07-05T19:14:08.919Z,52.57
2018-07-05T19:16:49.515Z,50.17
2018-07-05T19:19:29.087Z,51.40
2018-07-05T19:22:08.753Z,53.37
2018-07-05T19:24:48.270Z,52.50
2018-07-05T19:27:27.883Z,52.57
2018-07-05T19:30:07.240Z,53.40
2018-07-05T19:32:46.861Z,55.70
2018-07-05T19:35:26.307Z,52.20
2018-07-05T19:38:06.003Z,53.40
2018-07-05T19:40:45.606Z,53.63
2018-07-05T19:43:25.235Z,52.87
2018-07-05T19:46:04.803Z,55.60
2018-07-05T19:48:44.343Z,52.80
2018-07-05T19:51:23.786Z,53.40
2018-07-05T19:54:03.405Z,50.63
2018-07-05T19:56:43.030Z,51.43
2018-07-05T19:59:22.596Z,52.20
2018-07-05T20:02:02.123Z,51.67
2018-07-05T20:04:41.663Z,53.43
2018-07-05T20:07:21.103Z,54.30
2018-07-05T20:10:01.375Z,55.37
2018-07-05T20:12:41.071Z,51.07
2018-07-05T20:15:20.661Z,49.90
2018-07-05T20:18:00.287Z,55.23
2018-07-05T20:20:39.953Z,52.53
2018-07-05T20:23:19.622Z,53.10
2018-07-05T20:25:59.655Z,52.57
2018-07-05T20:28:39.013Z,53.23
2018-07-05T20:31:18.625Z,52.63
2018-07-05T20:33:58.389Z,56.40
2018-07-05T20:36:38.089Z,53.60
2018-07-05T20:39:17.735Z,54.80
2018-07-05T20:41:57.394Z,59.40
2018-07-05T20:44:37.022Z,52.90
2018-07-05T20:47:16.653Z,53.70
2018-07-05T20:49:56.217Z,52.50
2018-07-05T20:52:35.752Z,52.60
2018-07-05T20:55:15.490Z,57.50
2018-07-05T20:57:55.038Z,57.97
2018-07-05T21:00:34.702Z,52.43
2018-07-05T21:03:14.231Z,51.97
2018-07-05T21:05:53.878Z,51.30
2018-07-05T21:08:33.261Z,54.77
2018-07-05T21:11:12.873Z,59.37
2018-07-05T21:13:52.425Z,56.17
2018-07-05T21:16:32.108Z,53.37
2018-07-05T21:19:11.662Z,53.30
2018-07-05T21:21:51.084Z,53.77
2018-07-05T21:24:30.712Z,52.50
2018-07-05T21:27:10.225Z,55.07
2018-07-05T21:29:49.945Z,53.87
2018-07-05T21:32:29.561Z,51.37
2018-07-05T21:35:09.230Z,55.20
2018-07-05T21:37:48.727Z,53.03
2018-07-05T21:40:28.498Z,55.63
2018-07-05T21:43:08.164Z,53.10
2018-07-05T21:45:47.614Z,55.37
2018-07-05T21:48:26.923Z,54.87
2018-07-05T21:51:06.614Z,56.07
2018-07-05T21:53:46.146Z,54.80
2018-07-05T21:56:25.683Z,53.00
2018-07-05T21:59:05.166Z,59.60
2018-07-05T22:01:44.927Z,58.80
2018-07-05T22:04:24.515Z,60.40
2018-07-05T22:07:04.044Z,56.63
2018-07-05T22:09:43.459Z,57.40
2018-07-05T22:12:23.029Z,59.10
2018-07-05T22:15:02.849Z,55.70
2018-07-05T22:17:47.736Z,55.20
2018-07-05T22:20:32.915Z,56.10
2018-07-05T22:23:18.003Z,58.20
2018-07-05T22:26:03.167Z,55.00
2018-07-05T22:28:48.275Z,55.20
2018-07-05T22:31:30.941Z,57.20
2018-07-05T22:34:10.690Z,56.43
2018-07-05T22:36:50.379Z,58.47
2018-07-05T22:39:30.008Z,55.17
2018-07-05T22:42:09.646Z,55.30
2018-07-05T22:44:49.169Z,54.57
2018-07-05T22:47:28.885Z,55.70
2018-07-05T22:50:08.613Z,55.40
2018-07-05T22:52:48.377Z,54.97
2018-07-05T22:55:28.050Z,57.00
2018-07-05T22:58:07.577Z,53.37
2018-07-05T23:00:47.143Z,52.77
2018-07-05T23:03:26.767Z,54.27
2018-07-05T23:06:06.262Z,54.57
2018-07-05T23:08:46.042Z,57.97
2018-07-05T23:11:25.551Z,53.13
2018-07-05T23:14:06.142Z,55.40
2018-07-05T23:16:45.602Z,54.00
2018-07-05T23:19:25.195Z,54.37
2018-07-05T23:22:04.666Z,56.97
2018-07-05T23:24:44.362Z,55.03
2018-07-05T23:27:23.914Z,53.97
2018-07-05T23:30:03.716Z,57.40
2018-07-05T23:32:43.392Z,57.17
2018-07-05T23:35:22.758Z,54.20
2018-07-05T23:38:02.365Z,59.17
2018-07-05T23:40:41.930Z,54.80
2018-07-05T23:43:21.431Z,57.03
2018-07-05T23:46:00.971Z,55.77
2018-07-05T23:48:40.531Z,55.77
2018-07-05T23:51:20.230Z,58.40
2018-07-05T23:53:59.866Z,57.17
2018-07-05T23:56:39.439Z,54.00
2018-07-05T23:59:19.179Z,56.50
